Aviation Digital Data Service (ADDS)

Output produced by METARs form (1906 UTC 18 June 2019)
found at http://www.aviationweather.gov/metar/data/
 
KTMT 181855Z AUTO 29009KT 250V310 10SM BKN085 25/02 A3021 RMK AO2 T02510023
KBAM 181855Z AUTO 36004KT 10SM CLR 27/01 A3014 RMK AO1
KBAM 181720Z 1818/1918 VRB06KT P6SM SCT250 
     FM190400 VRB06KT P6SM SKC
       
KBVU 181855Z AUTO VRB03G10KT 10SM CLR 33/05 A2993 RMK AO2
KCXP 181855Z AUTO 03005KT 10SM CLR 28/00 A3015 RMK AO2
KCXP 181722Z 1818/1918 06011KT P6SM FEW120 
     FM190000 31008KT P6SM SKC 
     FM190600 VRB03KT P6SM SKC
       
KEKO 181856Z AUTO 21008KT 10SM CLR 27/05 A3014 RMK AO2 SLP153 T02670050
KEKO 181720Z 1818/1918 VRB03KT P6SM SCT250 
     FM182000 28010G20KT P6SM FEW250 
     FM190300 VRB06KT P6SM FEW250
       
KELY 181853Z AUTO 02010G15KT 10SM CLR 24/02 A3021 RMK AO2 SLP149 T02390022
KELY 181720Z 1818/1918 VRB06KT P6SM SCT100 
     FM182000 30010KT P6SM BKN090 
     FM190300 VRB06KT P6SM SKC 
     FM190800 18008KT P6SM SKC 
     FM191700 VRB06KT P6SM SKC
       
K05U 181855Z AUTO 00000G10KT 10SM BKN080 BKN090 25/04 A3022 RMK A01
KHTH 181855Z AUTO 32008KT 10SM CLR 28/01 A3014 RMK A01
KHND 181856Z VRB03KT 10SM CLR 34/07 A2997 RMK AO2 SLP117 T03390072 $
KHND 181723Z 1818/1918 04003KT P6SM FEW120 FEW250 
     FM190300 18009KT P6SM SKC
       
KLAS 181856Z VRB05KT 10SM FEW120 FEW250 33/06 A2993 RMK AO2 SLP106 T03330061
KLAS 181723Z 1818/1924 03006KT P6SM FEW250 
     FM181900 13007KT P6SM FEW120 FEW250 
     FM190300 21009KT P6SM SKC
       
KVGT 181853Z 26003KT 10SM CLR 33/05 A2993 RMK AO2 SLP124 T03280050
KVGT 181723Z 1818/1918 08006KT P6SM FEW120 FEW250 
     FM182000 15007KT P6SM FEW120 FEW250 
     FM191000 35005KT P6SM SKC
       
KLOL 181853Z AUTO 27007KT 210V330 10SM CLR 29/03 A3010 RMK AO2 SLP145 T02940033
KMEV 181900Z AUTO 12005KT 10SM CLR 27/03 A3017 RMK AO2
KRTS 181855Z AUTO VRB06KT 10SM CLR 26/01 A3020 RMK AO2
KRNO 181855Z 00000KT 10SM CLR 29/00 A3015 RMK AO2 SLP144 T02940000
KRNO 181722Z 1818/1918 03007KT P6SM FEW120 
     FM190100 31011KT P6SM SKC 
     FM190700 32005KT P6SM SKC
       
KTPH 181856Z AUTO 32009KT 250V340 10SM BKN100 27/02 A3017 RMK AO2 SLP144 T02720022
KTPH 181720Z 1818/1918 36011KT P6SM FEW100 
     FM181900 36010G20KT P6SM SCT100 
     FM190500 36008KT P6SM SKC 
     FM191500 VRB05KT P6SM SKC
       
KWMC 181856Z AUTO VRB06KT 10SM CLR 28/03 A3013 RMK AO2 SLP150 T02830028
KWMC 181720Z 1818/1918 32008KT P6SM SCT250 
     FM190400 VRB06KT P6SM SKC